x

South Georgian Bay (45143) Wave Buoy

7:00am - Thu 23rd Oct 2014 All times are CDT. -5 hours from GMT.

  • Sig Wave height 0.7ft
  • Peak Period 2s
  • Wind
  • Sea Temp 52°f
  • Air Temp 50°f
  • Sea Pressure 1023.5mb
  • South Georgian Bay
  • South Georgian Bay

More Historic Weather Station data

Upgrade to MSW Pro to gain access to the past 30 days of data for over 8000 Wavebouys and Weather Stations around the globe.

Join Pro

Comparision Forecast

View Surf forecast
   
Thu 10/23 7:00am 0.7ft 2s  -  2 mph 1023.5mb 52f 50f
6:00am 0.7ft 2s 2 4 mph 1023.5mb 52f 50f
5:00am 0.7ft 2s 7
mph
1023.8mb 52f 50f
4:00am 0.7ft 2s 7
mph
1023.6mb 52f 50f
3:00am 1ft 3s 7
mph
1023.6mb 52f 51f
2:00am 1.3ft 3s 7
mph
1024mb 52f 51f
1:00am 1.3ft 3s 9
mph
1024.2mb 52f 51f
12:00am 1.3ft 4s 9
mph
1024.4mb 52f 51f
Wed 10/22 11:00pm 1.6ft 4s 9
mph
1024.7mb 52f 51f
10:00pm 1.6ft 4s 11 13 mph 1025.2mb 52f 51f
9:00pm 2ft 4s 13 16 mph 1025.4mb 52f 51f
8:00pm 2ft 4s 13 18 mph 1025.5mb 52f 52f
7:00pm 2ft 4s 13 16 mph 1025.5mb 53f 52f
6:00pm 2ft 4s 13 16 mph 1025.4mb 53f 52f
5:00pm 2ft 4s 13 18 mph 1025.6mb 53f 50f
4:00pm 1.6ft 3s 13 16 mph 1025.8mb 53f 49f
3:00pm 1.6ft 4s 13 16 mph 1025.9mb 53f 48f
2:00pm 2ft 4s 11 13 mph 1026.3mb 53f 47f
1:00pm 2ft 4s 13 16 mph 1026.6mb 53f 47f
12:00pm 2.5ft 4s 13 16 mph 1027.2mb 53f 45f
11:00am 2.5ft 4s 11 13 mph 1027.8mb 53f 44f
10:00am 2ft 4s 9 13 mph 1028mb 53f 43f
9:00am 2.5ft 5s 9 11 mph 1028.1mb 52f 43f
8:00am 2.5ft 4s 13 16 mph 1027.6mb 52f 43f
7:00am 2.5ft 4s 11 13 mph 1027.3mb 52f 43f
6:00am 2.5ft 5s 13 16 mph 1026.7mb 52f 42f
5:00am 2.5ft 5s 13 16 mph 1026.4mb 52f 43f
4:00am 2.5ft 4s 11 16 mph 1025.9mb 52f 43f
3:00am 3ft 4s 13 16 mph 1025.3mb 52f 44f
2:00am 3ft 5s 13 18 mph 1024.9mb 52f 43f
1:00am 3.5ft 4s 13 18 mph 1024.8mb 52f 43f
12:00am 4ft 6s 18 20 mph 1024.6mb 52f 43f
Tue 10/21 11:00pm 4ft 4s 18 22 mph 1024.7mb 52f 43f
10:00pm 4.5ft 5s 18 25 mph 1024.7mb 53f 43f
9:00pm 5ft 6s 20 27 mph 1024.2mb 52f 43f
8:00pm 5ft 6s 22 31 mph 1023.4mb 53f 43f
7:00pm 5ft 6s 25 29 mph 1022.7mb 53f 44f
6:00pm 5.5ft 5s 25 31 mph 1022mb 53f 45f
5:00pm 6ft 6s 22 29 mph 1020.9mb 53f 45f
4:00pm 6ft 6s 22 27 mph 1020mb 53f 46f
3:00pm 6.5ft 6s 25 31 mph 1019mb 53f 46f
2:00pm 6ft 6s 25 31 mph 1018.2mb 53f 46f
1:00pm 6ft 7s 25 31 mph 1017.4mb 53f 45f
12:00pm 6ft 6s 25 31 mph 1017mb 53f 45f
11:00am 6.5ft 6s 25 31 mph 1016.7mb 53f 44f
10:00am 6.5ft 7s 27 31 mph 1016.1mb 53f 44f
8:00am 6ft 6s 27 31 mph 1014.4mb 53f 44f
7:00am 6ft 5s 27 31 mph 1013.5mb 53f 45f
6:00am 5ft 6s 25 31 mph 1012.3mb 53f 46f
5:00am 5ft 6s 25 29 mph 1011.3mb 53f 46f
4:00am 5ft 6s 25 29 mph 1010.5mb 53f 46f
3:00am 5ft 6s 25 29 mph 1009.8mb 53f 46f
2:00am 4.5ft 5s 22 25 mph 1009.5mb 53f 47f
1:00am 3.5ft 4s 22 27 mph 1009mb 53f 48f
12:00am 2ft 4s 22 25 mph 1008.6mb 53f 49f
Mon 10/20 11:00pm 1ft 3s 18 20 mph 1008.5mb 53f 51f
10:00pm 1.3ft 3s 9 11 mph 1008.6mb 53f 52f
9:00pm 1.3ft 3s 13
mph
1008.6mb 53f 52f
8:00pm 1.3ft 3s 11 13 mph 1008.6mb 53f 51f
7:00pm 1.3ft 3s 13 16 mph 1008.6mb 53f 52f
6:00pm 1.3ft 3s 11 13 mph 1008.4mb 53f 52f
5:00pm 1.3ft 3s 11 13 mph 1008.1mb 53f 51f
4:00pm 1.3ft 3s 9 11 mph 1007.9mb 53f 51f
3:00pm 1.3ft 3s 11 13 mph 1007.7mb 53f 51f
2:00pm 1.6ft 3s 11 13 mph 1007.7mb 53f 51f
1:00pm 1.6ft 3s 13 16 mph 1007.7mb 53f 50f
12:00pm 2ft 3s 16 18 mph 1008mb 53f 49f
11:00am 2ft 4s 13 16 mph 1008.6mb 53f 49f
10:00am 2.5ft 4s 16 18 mph 1008.9mb 53f 49f
9:00am 2.5ft 4s 16 20 mph 1009.2mb 53f 48f
8:00am 2.5ft 4s 16 20 mph 1009.4mb 53f 49f
7:00am 2.5ft 4s 18 22 mph 1009.5mb 53f 47f
6:00am 2.5ft 3s 18 22 mph 1009.7mb 53f 48f
5:00am 2ft 3s 18 20 mph 1009.9mb 53f 49f
4:00am 2ft 3s 18 20 mph 1010.3mb 53f 49f
3:00am 1.3ft 3s 16 20 mph 1010.9mb 53f 48f
2:00am 1.6ft 3s 11 13 mph 1011.9mb 53f 47f
1:00am 1.6ft 3s 16 18 mph 1013mb 53f 47f
12:00am 1.3ft 3s 16 18 mph 1013.7mb 53f 46f
Sun 10/19 9:00pm 1.6ft 3s 11 16 mph 1014.8mb 53f 45f
8:00pm 2ft 3s 13 16 mph 1015.6mb 53f 45f
7:00pm 1.6ft 3s 13 18 mph 1016.2mb 53f 44f
6:00pm 1.6ft 3s 13 16 mph 1016.6mb 53f 44f
5:00pm 1.6ft 3s 16 20 mph 1016.7mb 53f 45f
4:00pm 1ft 3s 13 18 mph 1017mb 54f 45f
3:00pm 1ft 3s 4 11 mph 1017.5mb 54f 44f
2:00pm 1ft 4s 4 7 mph 1018.2mb 54f 43f